UAE4PV LIMC-KJFK
Flight info
| Callsign | UAE4PV |
|---|---|
| Flight time | N/A |
| Altitude | 36000 |
| Route | AOSTA DCT ORSUD DCT MOLUS DCT UNKIR DCT DJL DCT OKRIX DCT AMODO DCT COHPA UM729 RESMI UN491 LGL UN502 SENLO/N0472F380 UN502 JSY DCT LIZAD DCT LESLU DCT LODLA DCT NEBIN/M083F390 NATB BUDAR/N0474F400 DCT ALLEX DCT PLYMM PARCH4 |
| Aircraft | A388/J-SADE2E3FGHIJ3J4J5M1RWXY/LB1D1 |
Departure
| Time | 2026-04-30 13:37 |
|---|---|
| Airport | Milan Malpensa International Airport (LIMC) |
Arrival
| Time | N/A |
|---|---|
| Airport | John F. Kennedy International Airport (KJFK) |
| Time | Latitude | Longitude | Altitude | Speed | Heading |
|---|---|---|---|---|---|
| 2026-04-30 12:58 | 45.63189 | 8.71582 | 757 ft | 0 kts | 236° |
| 2026-04-30 13:23 | 45.63209 | 8.71627 | 757 ft | 4 kts | 241° |
| 2026-04-30 13:24 | 45.63238 | 8.71667 | 753 ft | 4 kts | 180° |
| 2026-04-30 13:24 | 45.63272 | 8.71660 | 757 ft | 0 kts | 171° |
| 2026-04-30 13:27 | 45.63211 | 8.71675 | 754 ft | 9 kts | 169° |
| 2026-04-30 13:28 | 45.62991 | 8.71736 | 757 ft | 10 kts | 169° |
| 2026-04-30 13:28 | 45.62816 | 8.71783 | 757 ft | 14 kts | 169° |
| 2026-04-30 13:28 | 45.62711 | 8.71812 | 757 ft | 16 kts | 169° |
| 2026-04-30 13:29 | 45.62482 | 8.71876 | 755 ft | 18 kts | 168° |
| 2026-04-30 13:29 | 45.62245 | 8.71941 | 756 ft | 11 kts | 169° |
| 2026-04-30 13:30 | 45.62192 | 8.72099 | 754 ft | 10 kts | 79° |
| 2026-04-30 13:31 | 45.62224 | 8.72345 | 751 ft | 15 kts | 79° |
| 2026-04-30 13:31 | 45.62292 | 8.72838 | 754 ft | 14 kts | 79° |
| 2026-04-30 13:32 | 45.62295 | 8.73009 | 752 ft | 7 kts | 144° |
| 2026-04-30 13:32 | 45.62161 | 8.73058 | 755 ft | 13 kts | 169° |
| 2026-04-30 13:33 | 45.61955 | 8.73114 | 757 ft | 17 kts | 169° |
| 2026-04-30 13:33 | 45.61766 | 8.73176 | 754 ft | 13 kts | 147° |
| 2026-04-30 13:34 | 45.61703 | 8.73285 | 752 ft | 15 kts | 124° |
| 2026-04-30 13:34 | 45.61591 | 8.73664 | 748 ft | 13 kts | 79° |
| 2026-04-30 13:35 | 45.61606 | 8.73722 | 746 ft | 3 kts | 29° |
| 2026-04-30 13:35 | 45.61647 | 8.73730 | 750 ft | 0 kts | 350° |
| 2026-04-30 13:36 | 45.61814 | 8.73683 | 748 ft | 62 kts | 348° |
| 2026-04-30 13:36 | 45.62478 | 8.73500 | 749 ft | 128 kts | 349° |
| 2026-04-30 13:36 | 45.64686 | 8.72880 | 1106 ft | 175 kts | 349° |
| 2026-04-30 13:37 | 45.65919 | 8.72526 | 1539 ft | 181 kts | 349° |
| 2026-04-30 13:37 | 45.68350 | 8.71840 | 2562 ft | 180 kts | 351° |
| 2026-04-30 13:38 | 45.71012 | 8.72002 | 2875 ft | 214 kts | 34° |
| 2026-04-30 13:38 | 45.71969 | 8.73645 | 3433 ft | 219 kts | 70° |
| 2026-04-30 13:38 | 45.71650 | 8.77870 | 4844 ft | 228 kts | 126° |
| 2026-04-30 13:39 | 45.68821 | 8.79686 | 6254 ft | 242 kts | 188° |
| 2026-04-30 13:39 | 45.66066 | 8.77082 | 7711 ft | 246 kts | 231° |
| 2026-04-30 13:40 | 45.64954 | 8.75189 | 8459 ft | 250 kts | 231° |
| 2026-04-30 13:40 | 45.64018 | 8.73089 | 9180 ft | 252 kts | 249° |
| 2026-04-30 13:40 | 45.63584 | 8.70662 | 9935 ft | 254 kts | 262° |
| 2026-04-30 13:40 | 45.63253 | 8.68078 | 10297 ft | 275 kts | 260° |
| 2026-04-30 13:41 | 45.62835 | 8.65297 | 10525 ft | 298 kts | 259° |
| 2026-04-30 13:41 | 45.62362 | 8.62308 | 10712 ft | 318 kts | 259° |
| 2026-04-30 13:41 | 45.61854 | 8.59132 | 10916 ft | 336 kts | 258° |
| 2026-04-30 13:41 | 45.61330 | 8.55845 | 11430 ft | 342 kts | 259° |
| 2026-04-30 13:42 | 45.60803 | 8.52521 | 12039 ft | 346 kts | 259° |
| 2026-04-30 13:42 | 45.60272 | 8.49158 | 12630 ft | 350 kts | 259° |
| 2026-04-30 13:42 | 45.59191 | 8.42313 | 13821 ft | 357 kts | 260° |
| 2026-04-30 13:43 | 45.58641 | 8.38842 | 14391 ft | 361 kts | 260° |
| 2026-04-30 13:43 | 45.58089 | 8.35329 | 14933 ft | 363 kts | 262° |
| 2026-04-30 13:43 | 45.57883 | 8.31747 | 15465 ft | 363 kts | 275° |
| 2026-04-30 13:43 | 45.58267 | 8.28202 | 15988 ft | 362 kts | 289° |
| 2026-04-30 13:44 | 45.59068 | 8.24780 | 16498 ft | 365 kts | 291° |
| 2026-04-30 13:44 | 45.59866 | 8.21351 | 17002 ft | 368 kts | 290° |
| 2026-04-30 13:44 | 45.60682 | 8.17827 | 17476 ft | 373 kts | 290° |
| 2026-04-30 13:44 | 45.61493 | 8.14309 | 18000 ft | 376 kts | 290° |
| 2026-04-30 13:45 | 45.63148 | 8.07147 | 18966 ft | 382 kts | 290° |
| 2026-04-30 13:45 | 45.63985 | 8.03528 | 19360 ft | 385 kts | 290° |
| 2026-04-30 13:45 | 45.64824 | 7.99887 | 19806 ft | 387 kts | 290° |
| 2026-04-30 13:46 | 45.65658 | 7.96260 | 20214 ft | 390 kts | 290° |
| 2026-04-30 13:46 | 45.66520 | 7.92513 | 20667 ft | 393 kts | 290° |
| 2026-04-30 13:46 | 45.67363 | 7.88837 | 21064 ft | 396 kts | 290° |
| 2026-04-30 13:46 | 45.68222 | 7.85087 | 21507 ft | 398 kts | 290° |
| 2026-04-30 13:47 | 45.69089 | 7.81300 | 21810 ft | 403 kts | 290° |
| 2026-04-30 13:47 | 45.69962 | 7.77473 | 22244 ft | 406 kts | 290° |
| 2026-04-30 13:47 | 45.70844 | 7.73593 | 22637 ft | 408 kts | 290° |
| 2026-04-30 13:47 | 45.71726 | 7.69706 | 22975 ft | 411 kts | 290° |
| 2026-04-30 13:48 | 45.72609 | 7.65811 | 23425 ft | 413 kts | 290° |
| 2026-04-30 13:48 | 45.73502 | 7.61875 | 23790 ft | 417 kts | 290° |
| 2026-04-30 13:48 | 45.74400 | 7.57910 | 24187 ft | 419 kts | 290° |
| 2026-04-30 13:48 | 45.75302 | 7.53931 | 24528 ft | 421 kts | 290° |
| 2026-04-30 13:49 | 45.76201 | 7.49941 | 24931 ft | 421 kts | 290° |
| 2026-04-30 13:49 | 45.77085 | 7.45999 | 25257 ft | 424 kts | 290° |
| 2026-04-30 13:49 | 45.77990 | 7.41961 | 25569 ft | 426 kts | 290° |
| 2026-04-30 13:49 | 45.79006 | 7.37985 | 25893 ft | 426 kts | 299° |
| 2026-04-30 13:50 | 45.80622 | 7.34384 | 26322 ft | 423 kts | 312° |
| 2026-04-30 13:50 | 45.85121 | 7.29030 | 27108 ft | 423 kts | 327° |
| 2026-04-30 13:50 | 45.87536 | 7.26592 | 27523 ft | 426 kts | 327° |
| 2026-04-30 13:51 | 45.89961 | 7.24120 | 27943 ft | 428 kts | 326° |
| 2026-04-30 13:51 | 45.92393 | 7.21633 | 28345 ft | 431 kts | 326° |
| 2026-04-30 13:51 | 45.94847 | 7.19124 | 28763 ft | 434 kts | 327° |
| 2026-04-30 13:51 | 45.97315 | 7.16602 | 29081 ft | 438 kts | 327° |
| 2026-04-30 13:52 | 45.99806 | 7.14054 | 29534 ft | 440 kts | 327° |
| 2026-04-30 13:52 | 46.02317 | 7.11483 | 29812 ft | 446 kts | 326° |
| 2026-04-30 13:52 | 46.04850 | 7.08887 | 30261 ft | 448 kts | 326° |
| 2026-04-30 13:52 | 46.07395 | 7.06277 | 30647 ft | 450 kts | 326° |
| 2026-04-30 13:53 | 46.09951 | 7.03649 | 31048 ft | 452 kts | 326° |
| 2026-04-30 13:53 | 46.12514 | 7.01011 | 31424 ft | 454 kts | 326° |
| 2026-04-30 13:53 | 46.15087 | 6.98359 | 31827 ft | 456 kts | 326° |
| 2026-04-30 13:53 | 46.17683 | 6.95680 | 32070 ft | 462 kts | 326° |
| 2026-04-30 13:54 | 46.20300 | 6.92978 | 32437 ft | 464 kts | 326° |
| 2026-04-30 13:54 | 46.22932 | 6.90256 | 32857 ft | 465 kts | 326° |
| 2026-04-30 13:54 | 46.25562 | 6.87535 | 33227 ft | 467 kts | 326° |
| 2026-04-30 13:54 | 46.28208 | 6.84793 | 33580 ft | 469 kts | 326° |
| 2026-04-30 13:55 | 46.30869 | 6.82029 | 33970 ft | 471 kts | 326° |
| 2026-04-30 13:55 | 46.33534 | 6.79262 | 34299 ft | 473 kts | 325° |
| 2026-04-30 13:55 | 46.36216 | 6.76474 | 34618 ft | 475 kts | 325° |
| 2026-04-30 13:55 | 46.38910 | 6.73666 | 34801 ft | 481 kts | 325° |
| 2026-04-30 13:56 | 46.41569 | 6.70723 | 35122 ft | 483 kts | 320° |
| 2026-04-30 13:56 | 46.43960 | 6.67301 | 35624 ft | 482 kts | 312° |
| 2026-04-30 13:56 | 46.46036 | 6.63490 | 36068 ft | 482 kts | 306° |
| 2026-04-30 13:56 | 46.47804 | 6.59322 | 36174 ft | 487 kts | 301° |
| 2026-04-30 13:57 | 46.51146 | 6.50842 | 36170 ft | 484 kts | 301° |
| 2026-04-30 13:57 | 46.54508 | 6.42345 | 36164 ft | 486 kts | 301° |
| 2026-04-30 13:58 | 46.59538 | 6.29534 | 36156 ft | 486 kts | 301° |
| 2026-04-30 13:59 | 46.62858 | 6.21043 | 36158 ft | 486 kts | 301° |
| 2026-04-30 13:59 | 46.66195 | 6.12479 | 36141 ft | 486 kts | 301° |
| 2026-04-30 14:00 | 46.69524 | 6.03910 | 36134 ft | 486 kts | 300° |
| 2026-04-30 14:00 | 46.74514 | 5.91010 | 36124 ft | 488 kts | 300° |
| 2026-04-30 14:01 | 46.77840 | 5.82381 | 36125 ft | 488 kts | 300° |
| 2026-04-30 14:01 | 46.81358 | 5.73937 | 36115 ft | 487 kts | 308° |
| 2026-04-30 14:02 | 46.85150 | 5.67780 | 36097 ft | 487 kts | 318° |
| 2026-04-30 14:02 | 46.90111 | 5.61029 | 36122 ft | 488 kts | 317° |
| 2026-04-30 14:03 | 46.95062 | 5.54196 | 36127 ft | 489 kts | 317° |
| 2026-04-30 14:03 | 46.99983 | 5.47405 | 36131 ft | 490 kts | 317° |
| 2026-04-30 14:04 | 47.04943 | 5.40551 | 36143 ft | 490 kts | 317° |
| 2026-04-30 14:04 | 47.09915 | 5.33665 | 36129 ft | 492 kts | 317° |
| 2026-04-30 14:05 | 47.14894 | 5.26747 | 36128 ft | 493 kts | 317° |
| 2026-04-30 14:05 | 47.19879 | 5.19804 | 36136 ft | 494 kts | 317° |
| 2026-04-30 14:06 | 47.27208 | 5.09129 | 36139 ft | 496 kts | 310° |
| 2026-04-30 14:07 | 47.33166 | 4.96627 | 36128 ft | 498 kts | 305° |
| 2026-04-30 14:08 | 47.39069 | 4.83962 | 36179 ft | 499 kts | 305° |
| 2026-04-30 14:08 | 47.44951 | 4.71230 | 36139 ft | 500 kts | 304° |
| 2026-04-30 14:09 | 47.48854 | 4.62745 | 36143 ft | 498 kts | 304° |
| 2026-04-30 14:10 | 47.54685 | 4.50024 | 36112 ft | 498 kts | 304° |
| 2026-04-30 14:10 | 47.58563 | 4.41530 | 36113 ft | 498 kts | 304° |
| 2026-04-30 14:11 | 47.62441 | 4.33012 | 36093 ft | 499 kts | 304° |
| 2026-04-30 14:11 | 47.66311 | 4.24482 | 36123 ft | 499 kts | 304° |
| 2026-04-30 14:12 | 47.70181 | 4.15926 | 36096 ft | 500 kts | 304° |
| 2026-04-30 14:12 | 47.74035 | 4.07379 | 36102 ft | 502 kts | 304° |
| 2026-04-30 14:13 | 47.77907 | 3.98763 | 36129 ft | 501 kts | 304° |
| 2026-04-30 14:13 | 47.81778 | 3.90125 | 36136 ft | 502 kts | 304° |
| 2026-04-30 14:14 | 47.85645 | 3.81467 | 36110 ft | 503 kts | 304° |
| 2026-04-30 14:14 | 47.89509 | 3.72789 | 36127 ft | 502 kts | 304° |
| 2026-04-30 14:15 | 47.93366 | 3.64097 | 36121 ft | 503 kts | 304° |
| 2026-04-30 14:15 | 47.97578 | 3.55809 | 36104 ft | 502 kts | 315° |
| 2026-04-30 14:16 | 48.02785 | 3.48887 | 36124 ft | 501 kts | 320° |
| 2026-04-30 14:16 | 48.08068 | 3.42074 | 36126 ft | 502 kts | 320° |
| 2026-04-30 14:17 | 48.13344 | 3.35253 | 36126 ft | 502 kts | 320° |
| 2026-04-30 14:17 | 48.18635 | 3.28409 | 36121 ft | 502 kts | 320° |
| 2026-04-30 14:18 | 48.23931 | 3.21542 | 36108 ft | 504 kts | 320° |
| 2026-04-30 14:18 | 48.31882 | 3.11196 | 36136 ft | 504 kts | 320° |
| 2026-04-30 14:19 | 48.39683 | 3.00591 | 36127 ft | 505 kts | 310° |
| 2026-04-30 14:19 | 48.41705 | 2.96261 | 36127 ft | 506 kts | 299° |
| 2026-04-30 14:20 | 48.43174 | 2.91464 | 36138 ft | 506 kts | 288° |
| 2026-04-30 14:20 | 48.43540 | 2.89760 | 36142 ft | 505 kts | 285° |
| 2026-04-30 14:21 | 48.48158 | 2.65593 | 36137 ft | 506 kts | 285° |
| 2026-04-30 14:22 | 48.51057 | 2.50285 | 36140 ft | 506 kts | 285° |
| 2026-04-30 14:22 | 48.53927 | 2.34983 | 36158 ft | 505 kts | 285° |
| 2026-04-30 14:23 | 48.57515 | 2.14550 | 36126 ft | 502 kts | 280° |
| 2026-04-30 14:24 | 48.59681 | 1.99134 | 36130 ft | 502 kts | 281° |
| 2026-04-30 14:25 | 48.62551 | 1.78508 | 36113 ft | 502 kts | 281° |
| 2026-04-30 14:26 | 48.64673 | 1.63032 | 36103 ft | 501 kts | 280° |
| 2026-04-30 14:27 | 48.66765 | 1.47528 | 36103 ft | 502 kts | 280° |
| 2026-04-30 14:27 | 48.68147 | 1.37188 | 36101 ft | 502 kts | 280° |
| 2026-04-30 14:28 | 48.70207 | 1.21653 | 36108 ft | 501 kts | 280° |
| 2026-04-30 14:28 | 48.71565 | 1.11321 | 36102 ft | 501 kts | 280° |
| 2026-04-30 14:29 | 48.74027 | 0.92387 | 36107 ft | 499 kts | 280° |
| 2026-04-30 14:31 | 48.77566 | 0.64839 | 36115 ft | 498 kts | 280° |
| 2026-04-30 14:31 | 48.79704 | 0.49428 | 36077 ft | 499 kts | 284° |
| 2026-04-30 14:32 | 48.82475 | 0.34225 | 36124 ft | 497 kts | 284° |
| 2026-04-30 14:33 | 48.84292 | 0.24107 | 36097 ft | 497 kts | 284° |
| 2026-04-30 14:33 | 48.87003 | 0.08916 | 36080 ft | 497 kts | 284° |
| 2026-04-30 14:34 | 48.88796 | -0.01194 | 36091 ft | 496 kts | 284° |
| 2026-04-30 14:34 | 48.90580 | -0.11316 | 36074 ft | 495 kts | 283° |
| 2026-04-30 14:35 | 48.93234 | -0.26483 | 36093 ft | 494 kts | 284° |
| 2026-04-30 14:36 | 48.94953 | -0.36619 | 36079 ft | 495 kts | 283° |
| 2026-04-30 14:36 | 48.96366 | -0.45048 | 36070 ft | 495 kts | 283° |
| 2026-04-30 14:37 | 48.98065 | -0.55203 | 36079 ft | 495 kts | 283° |
| 2026-04-30 14:37 | 48.99757 | -0.65363 | 36078 ft | 495 kts | 283° |
| 2026-04-30 14:38 | 49.01445 | -0.75559 | 36202 ft | 499 kts | 283° |
| 2026-04-30 14:38 | 49.02289 | -0.80679 | 36660 ft | 497 kts | 283° |
| 2026-04-30 14:38 | 49.03128 | -0.85790 | 37103 ft | 496 kts | 283° |
| 2026-04-30 14:38 | 49.03963 | -0.90878 | 37537 ft | 495 kts | 283° |
| 2026-04-30 14:39 | 49.04796 | -0.95983 | 37857 ft | 497 kts | 283° |
| 2026-04-30 14:39 | 49.05631 | -1.01108 | 38075 ft | 500 kts | 282° |
| 2026-04-30 14:39 | 49.06463 | -1.06240 | 38068 ft | 494 kts | 283° |
| 2026-04-30 14:40 | 49.08915 | -1.21412 | 38072 ft | 494 kts | 282° |
| 2026-04-30 14:40 | 49.10566 | -1.31593 | 38067 ft | 495 kts | 282° |
| 2026-04-30 14:41 | 49.12203 | -1.41730 | 38068 ft | 490 kts | 282° |
| 2026-04-30 14:41 | 49.13823 | -1.51840 | 38063 ft | 491 kts | 282° |
| 2026-04-30 14:42 | 49.15435 | -1.61975 | 38063 ft | 491 kts | 282° |
| 2026-04-30 14:42 | 49.17039 | -1.72111 | 38066 ft | 491 kts | 282° |
| 2026-04-30 14:43 | 49.18636 | -1.82268 | 38062 ft | 492 kts | 282° |
| 2026-04-30 14:43 | 49.20224 | -1.92433 | 38072 ft | 492 kts | 282° |
| 2026-04-30 14:44 | 49.21804 | -2.02612 | 38074 ft | 492 kts | 282° |
| 2026-04-30 14:44 | 49.23461 | -2.12758 | 38066 ft | 492 kts | 284° |
| 2026-04-30 14:45 | 49.25233 | -2.22871 | 38077 ft | 492 kts | 283° |
| 2026-04-30 14:45 | 49.26979 | -2.33008 | 38063 ft | 492 kts | 283° |
| 2026-04-30 14:46 | 49.28701 | -2.43155 | 38061 ft | 493 kts | 283° |
| 2026-04-30 14:46 | 49.30414 | -2.53326 | 38069 ft | 493 kts | 283° |
| 2026-04-30 14:47 | 49.32118 | -2.63498 | 38075 ft | 493 kts | 283° |
| 2026-04-30 14:47 | 49.33817 | -2.73703 | 38071 ft | 494 kts | 282° |
| 2026-04-30 14:48 | 49.35495 | -2.83841 | 38060 ft | 494 kts | 282° |
| 2026-04-30 14:48 | 49.37176 | -2.94057 | 38056 ft | 494 kts | 282° |
| 2026-04-30 14:49 | 49.38850 | -3.04290 | 38054 ft | 494 kts | 282° |
| 2026-04-30 14:49 | 49.40515 | -3.14532 | 38076 ft | 494 kts | 282° |
| 2026-04-30 14:50 | 49.42991 | -3.29887 | 38059 ft | 493 kts | 282° |
| 2026-04-30 14:51 | 49.45443 | -3.45227 | 38050 ft | 492 kts | 281° |
| 2026-04-30 14:52 | 49.47871 | -3.60561 | 38074 ft | 491 kts | 281° |
| 2026-04-30 14:52 | 49.50272 | -3.75865 | 38059 ft | 490 kts | 281° |
| 2026-04-30 14:53 | 49.52646 | -3.91147 | 38047 ft | 489 kts | 281° |
| 2026-04-30 14:54 | 49.55774 | -4.11499 | 38052 ft | 488 kts | 281° |
| 2026-04-30 14:55 | 49.58098 | -4.26746 | 38054 ft | 487 kts | 282° |
| 2026-04-30 14:55 | 49.60547 | -4.36436 | 38054 ft | 492 kts | 296° |
| 2026-04-30 14:56 | 49.64177 | -4.45489 | 38061 ft | 493 kts | 300° |
| 2026-04-30 14:57 | 49.69639 | -4.58881 | 38053 ft | 494 kts | 300° |
| 2026-04-30 14:58 | 49.76943 | -4.76861 | 38045 ft | 494 kts | 299° |
| 2026-04-30 14:58 | 49.82405 | -4.90383 | 38053 ft | 494 kts | 299° |
| 2026-04-30 15:00 | 49.91472 | -5.12988 | 38033 ft | 494 kts | 299° |
| 2026-04-30 15:01 | 49.98698 | -5.31143 | 38040 ft | 495 kts | 299° |
| 2026-04-30 15:01 | 50.04111 | -5.44824 | 38062 ft | 495 kts | 299° |
| 2026-04-30 15:02 | 50.07715 | -5.53972 | 38053 ft | 496 kts | 298° |
| 2026-04-30 15:03 | 50.16684 | -5.76884 | 38027 ft | 495 kts | 298° |
| 2026-04-30 15:04 | 50.25591 | -5.99836 | 38035 ft | 494 kts | 298° |
| 2026-04-30 15:06 | 50.34471 | -6.22922 | 38030 ft | 496 kts | 298° |
| 2026-04-30 15:07 | 50.41532 | -6.41427 | 38032 ft | 497 kts | 297° |
| 2026-04-30 15:08 | 50.48603 | -6.60093 | 38019 ft | 499 kts | 297° |
| 2026-04-30 15:09 | 50.57434 | -6.83592 | 38028 ft | 500 kts | 297° |
| 2026-04-30 15:10 | 50.64485 | -7.02509 | 38037 ft | 503 kts | 296° |
| 2026-04-30 15:11 | 50.75046 | -7.31108 | 38030 ft | 503 kts | 297° |
| 2026-04-30 15:13 | 50.83783 | -7.55013 | 38008 ft | 503 kts | 296° |
| 2026-04-30 15:14 | 50.96001 | -7.88817 | 38019 ft | 507 kts | 296° |
| 2026-04-30 15:17 | 51.12474 | -8.32259 | 38006 ft | 513 kts | 298° |
| 2026-04-30 15:19 | 51.27295 | -8.71146 | 38010 ft | 514 kts | 298° |